Terminal Aerodrome Forecast
Issued by NWS Sterling, VA

Current Version | Previous Version | Graphics & Text | Print | Product List | Glossary On
Versions: 1 2 3 4 5 6 7 8 9 10 11 12 13 14 15 16 17 18 19 20 21 22 23
000
FTUS41 KLWX 152059 AAA
TAFDCA
TAF AMD
KDCA 152059Z 1521/1618 02009KT P6SM BKN200
     FM160000 03005KT P6SM SCT200
     FM161400 10005KT P6SM SCT200
     FM161700 13011G18KT P6SM BKN200=

USA.gov is the U.S. government's official web portal to all federal, state and local government web resources and services.